sensor_id;sensor_type;location;lat;lon;timestamp;temperature;humidity
2869;DHT22;1442;47.448;8.582;2024-03-23T00:51:39;10.20;99.90
2869;DHT22;1442;47.448;8.582;2024-03-23T00:54:05;10.20;99.90
2869;DHT22;1442;47.448;8.582;2024-03-23T00:56:31;10.20;99.90
2869;DHT22;1442;47.448;8.582;2024-03-23T00:58:57;10.20;99.90
2869;DHT22;1442;47.448;8.582;2024-03-23T01:01:24;10.20;99.90
2869;DHT22;1442;47.448;8.582;2024-03-23T01:03:50;10.30;99.90
2869;DHT22;1442;47.448;8.582;2024-03-23T01:06:17;10.30;99.90
2869;DHT22;1442;47.448;8.582;2024-03-23T01:08:44;10.20;99.90
2869;DHT22;1442;47.448;8.582;2024-03-23T01:11:11;10.20;99.90
2869;DHT22;1442;47.448;8.582;2024-03-23T01:13:37;10.30;99.90
2869;DHT22;1442;47.448;8.582;2024-03-23T01:16:04;10.30;99.90
2869;DHT22;1442;47.448;8.582;2024-03-23T01:18:30;10.30;99.90
2869;DHT22;1442;47.448;8.582;2024-03-23T01:20:58;10.30;99.90
2869;DHT22;1442;47.448;8.582;2024-03-23T01:23:25;10.30;99.90
2869;DHT22;1442;47.448;8.582;2024-03-23T01:25:55;10.30;99.90
2869;DHT22;1442;47.448;8.582;2024-03-23T01:28:22;10.40;99.90
2869;DHT22;1442;47.448;8.582;2024-03-23T01:30:49;10.40;99.90
2869;DHT22;1442;47.448;8.582;2024-03-23T01:33:16;10.50;99.90
2869;DHT22;1442;47.448;8.582;2024-03-23T01:35:41;10.50;99.90
2869;DHT22;1442;47.448;8.582;2024-03-23T01:38:08;10.50;99.90
2869;DHT22;1442;47.448;8.582;2024-03-23T01:40:34;10.50;99.90
2869;DHT22;1442;47.448;8.582;2024-03-23T01:43:04;10.50;99.90
2869;DHT22;1442;47.448;8.582;2024-03-23T01:45:31;10.50;99.90
2869;DHT22;1442;47.448;8.582;2024-03-23T01:47:58;10.50;99.90
2869;DHT22;1442;47.448;8.582;2024-03-23T01:50:24;10.50;99.90
2869;DHT22;1442;47.448;8.582;2024-03-23T01:52:51;10.50;99.90
2869;DHT22;1442;47.448;8.582;2024-03-23T01:55:17;10.60;99.90
2869;DHT22;1442;47.448;8.582;2024-03-23T01:57:44;10.60;99.90
2869;DHT22;1442;47.448;8.582;2024-03-23T02:00:13;10.60;99.90
2869;DHT22;1442;47.448;8.582;2024-03-23T02:02:43;10.60;99.90
2869;DHT22;1442;47.448;8.582;2024-03-23T02:05:10;10.60;99.90
2869;DHT22;1442;47.448;8.582;2024-03-23T02:07:37;10.60;99.90
2869;DHT22;1442;47.448;8.582;2024-03-23T02:10:04;10.70;99.90
2869;DHT22;1442;47.448;8.582;2024-03-23T02:12:31;10.80;99.90
2869;DHT22;1442;47.448;8.582;2024-03-23T02:14:57;10.80;99.90
2869;DHT22;1442;47.448;8.582;2024-03-23T02:17:25;10.90;99.90
2869;DHT22;1442;47.448;8.582;2024-03-23T02:19:51;11.00;99.90
2869;DHT22;1442;47.448;8.582;2024-03-23T02:22:17;11.00;99.90
2869;DHT22;1442;47.448;8.582;2024-03-23T02:24:44;11.10;99.90
2869;DHT22;1442;47.448;8.582;2024-03-23T02:27:11;11.20;99.90
2869;DHT22;1442;47.448;8.582;2024-03-23T02:29:37;11.20;99.90
2869;DHT22;1442;47.448;8.582;2024-03-23T02:32:04;11.30;99.90
2869;DHT22;1442;47.448;8.582;2024-03-23T02:34:30;11.40;99.90
2869;DHT22;1442;47.448;8.582;2024-03-23T02:36:57;11.40;99.90
2869;DHT22;1442;47.448;8.582;2024-03-23T02:39:23;11.50;99.90
2869;DHT22;1442;47.448;8.582;2024-03-23T02:41:51;11.50;99.90
2869;DHT22;1442;47.448;8.582;2024-03-23T02:44:17;11.60;99.90
2869;DHT22;1442;47.448;8.582;2024-03-23T02:46:43;11.60;99.90
2869;DHT22;1442;47.448;8.582;2024-03-23T02:49:09;11.70;99.90
2869;DHT22;1442;47.448;8.582;2024-03-23T02:51:36;11.70;99.90
2869;DHT22;1442;47.448;8.582;2024-03-23T02:54:01;11.80;99.90
2869;DHT22;1442;47.448;8.582;2024-03-23T02:56:28;11.90;99.90
2869;DHT22;1442;47.448;8.582;2024-03-23T02:58:55;12.00;99.90
2869;DHT22;1442;47.448;8.582;2024-03-23T03:01:22;12.00;99.90
2869;DHT22;1442;47.448;8.582;2024-03-23T03:03:48;12.10;99.90
2869;DHT22;1442;47.448;8.582;2024-03-23T03:06:23;12.20;99.90
2869;DHT22;1442;47.448;8.582;2024-03-23T03:08:49;12.20;99.90
2869;DHT22;1442;47.448;8.582;2024-03-23T03:11:15;12.20;99.90
2869;DHT22;1442;47.448;8.582;2024-03-23T03:13:41;12.30;99.90
2869;DHT22;1442;47.448;8.582;2024-03-23T03:16:10;12.40;99.90
2869;DHT22;1442;47.448;8.582;2024-03-23T03:18:35;12.50;99.90
2869;DHT22;1442;47.448;8.582;2024-03-23T03:21:02;12.60;99.90
2869;DHT22;1442;47.448;8.582;2024-03-23T03:23:28;12.70;99.90
2869;DHT22;1442;47.448;8.582;2024-03-23T03:25:55;12.70;99.90
2869;DHT22;1442;47.448;8.582;2024-03-23T03:28:21;12.70;99.90
2869;DHT22;1442;47.448;8.582;2024-03-23T03:30:48;12.70;99.90
2869;DHT22;1442;47.448;8.582;2024-03-23T03:33:15;12.70;99.90
2869;DHT22;1442;47.448;8.582;2024-03-23T03:35:42;12.70;99.90
2869;DHT22;1442;47.448;8.582;2024-03-23T03:38:08;12.70;99.90
2869;DHT22;1442;47.448;8.582;2024-03-23T03:40:35;12.60;99.90
2869;DHT22;1442;47.448;8.582;2024-03-23T03:43:01;12.70;99.90
2869;DHT22;1442;47.448;8.582;2024-03-23T03:45:28;12.60;99.90
2869;DHT22;1442;47.448;8.582;2024-03-23T03:47:53;12.60;99.90
2869;DHT22;1442;47.448;8.582;2024-03-23T03:50:22;12.70;99.90
2869;DHT22;1442;47.448;8.582;2024-03-23T03:52:47;12.60;99.90
2869;DHT22;1442;47.448;8.582;2024-03-23T03:55:15;12.60;99.90
2869;DHT22;1442;47.448;8.582;2024-03-23T03:57:41;12.60;99.90
2869;DHT22;1442;47.448;8.582;2024-03-23T04:00:09;12.50;99.90
2869;DHT22;1442;47.448;8.582;2024-03-23T04:02:36;12.60;99.90
2869;DHT22;1442;47.448;8.582;2024-03-23T04:05:03;12.60;99.90
2869;DHT22;1442;47.448;8.582;2024-03-23T04:07:30;12.60;99.90
2869;DHT22;1442;47.448;8.582;2024-03-23T04:09:57;12.50;99.90
2869;DHT22;1442;47.448;8.582;2024-03-23T04:12:23;12.60;99.90
2869;DHT22;1442;47.448;8.582;2024-03-23T04:14:50;12.60;99.90
2869;DHT22;1442;47.448;8.582;2024-03-23T04:17:16;12.60;99.90
2869;DHT22;1442;47.448;8.582;2024-03-23T04:19:44;12.60;99.90
2869;DHT22;1442;47.448;8.582;2024-03-23T04:22:10;12.60;99.90
2869;DHT22;1442;47.448;8.582;2024-03-23T04:24:38;12.70;99.90
2869;DHT22;1442;47.448;8.582;2024-03-23T04:27:03;12.70;99.90
2869;DHT22;1442;47.448;8.582;2024-03-23T04:29:31;12.70;99.90
2869;DHT22;1442;47.448;8.582;2024-03-23T04:31:56;12.70;99.90
2869;DHT22;1442;47.448;8.582;2024-03-23T04:34:23;12.70;99.90
2869;DHT22;1442;47.448;8.582;2024-03-23T04:36:49;12.70;99.90
2869;DHT22;1442;47.448;8.582;2024-03-23T04:39:16;12.60;99.90
2869;DHT22;1442;47.448;8.582;2024-03-23T04:41:44;12.60;99.90
2869;DHT22;1442;47.448;8.582;2024-03-23T04:44:10;12.50;99.90
2869;DHT22;1442;47.448;8.582;2024-03-23T04:46:37;12.50;99.90
2869;DHT22;1442;47.448;8.582;2024-03-23T04:49:04;12.50;99.90
2869;DHT22;1442;47.448;8.582;2024-03-23T04:51:35;12.50;99.90
2869;DHT22;1442;47.448;8.582;2024-03-23T04:54:03;12.40;99.90
2869;DHT22;1442;47.448;8.582;2024-03-23T04:56:31;12.40;99.90
2869;DHT22;1442;47.448;8.582;2024-03-23T04:58:59;12.40;99.90
2869;DHT22;1442;47.448;8.582;2024-03-23T05:01:27;12.40;99.90
2869;DHT22;1442;47.448;8.582;2024-03-23T05:03:53;12.40;99.90
2869;DHT22;1442;47.448;8.582;2024-03-23T05:06:19;12.30;99.90
2869;DHT22;1442;47.448;8.582;2024-03-23T05:08:46;12.30;99.90
2869;DHT22;1442;47.448;8.582;2024-03-23T05:11:12;12.30;99.90
2869;DHT22;1442;47.448;8.582;2024-03-23T05:13:38;12.30;99.90
2869;DHT22;1442;47.448;8.582;2024-03-23T05:16:06;12.30;99.90
2869;DHT22;1442;47.448;8.582;2024-03-23T05:18:32;12.30;99.90
2869;DHT22;1442;47.448;8.582;2024-03-23T05:20:58;12.30;99.90
2869;DHT22;1442;47.448;8.582;2024-03-23T05:23:25;12.40;99.90
2869;DHT22;1442;47.448;8.582;2024-03-23T05:25:51;12.50;99.90
2869;DHT22;1442;47.448;8.582;2024-03-23T05:28:18;12.60;99.90
2869;DHT22;1442;47.448;8.582;2024-03-23T05:30:50;12.80;99.90
2869;DHT22;1442;47.448;8.582;2024-03-23T05:33:18;12.70;99.90
2869;DHT22;1442;47.448;8.582;2024-03-23T05:35:44;12.60;99.90
2869;DHT22;1442;47.448;8.582;2024-03-23T05:38:11;12.40;99.90
2869;DHT22;1442;47.448;8.582;2024-03-23T05:40:38;12.30;99.90
2869;DHT22;1442;47.448;8.582;2024-03-23T05:43:05;12.20;99.90
2869;DHT22;1442;47.448;8.582;2024-03-23T05:45:32;12.20;99.90
2869;DHT22;1442;47.448;8.582;2024-03-23T05:47:58;12.10;99.90
2869;DHT22;1442;47.448;8.582;2024-03-23T05:50:26;12.00;99.90
2869;DHT22;1442;47.448;8.582;2024-03-23T05:52:52;12.00;99.90
2869;DHT22;1442;47.448;8.582;2024-03-23T05:55:19;12.00;99.90
2869;DHT22;1442;47.448;8.582;2024-03-23T05:57:44;11.90;99.90
2869;DHT22;1442;47.448;8.582;2024-03-23T06:00:12;11.90;99.90
2869;DHT22;1442;47.448;8.582;2024-03-23T06:02:41;11.90;99.90
2869;DHT22;1442;47.448;8.582;2024-03-23T06:05:10;11.80;99.90
2869;DHT22;1442;47.448;8.582;2024-03-23T06:07:37;11.70;99.90
2869;DHT22;1442;47.448;8.582;2024-03-23T06:10:04;11.60;99.90
2869;DHT22;1442;47.448;8.582;2024-03-23T06:12:31;11.50;99.90
2869;DHT22;1442;47.448;8.582;2024-03-23T06:14:57;11.40;99.90
2869;DHT22;1442;47.448;8.582;2024-03-23T06:17:23;11.30;99.90
2869;DHT22;1442;47.448;8.582;2024-03-23T06:19:50;11.20;99.90
2869;DHT22;1442;47.448;8.582;2024-03-23T06:22:16;11.20;99.90
2869;DHT22;1442;47.448;8.582;2024-03-23T06:24:44;11.20;99.90
2869;DHT22;1442;47.448;8.582;2024-03-23T06:27:10;11.10;99.90
2869;DHT22;1442;47.448;8.582;2024-03-23T06:29:37;11.00;99.90
2869;DHT22;1442;47.448;8.582;2024-03-23T06:32:02;11.00;99.90
2869;DHT22;1442;47.448;8.582;2024-03-23T06:34:29;10.90;99.90
2869;DHT22;1442;47.448;8.582;2024-03-23T06:36:55;10.90;99.90
2869;DHT22;1442;47.448;8.582;2024-03-23T06:39:22;10.90;99.90
2869;DHT22;1442;47.448;8.582;2024-03-23T06:41:53;10.80;99.90
2869;DHT22;1442;47.448;8.582;2024-03-23T06:44:20;10.80;99.90
2869;DHT22;1442;47.448;8.582;2024-03-23T06:46:46;10.80;99.90
2869;DHT22;1442;47.448;8.582;2024-03-23T06:49:13;10.80;99.90
2869;DHT22;1442;47.448;8.582;2024-03-23T06:51:38;10.80;99.90
2869;DHT22;1442;47.448;8.582;2024-03-23T06:54:06;10.80;99.90
2869;DHT22;1442;47.448;8.582;2024-03-23T06:56:32;10.80;99.90
2869;DHT22;1442;47.448;8.582;2024-03-23T06:59:00;10.70;99.90
2869;DHT22;1442;47.448;8.582;2024-03-23T07:01:25;10.70;99.90
2869;DHT22;1442;47.448;8.582;2024-03-23T07:03:54;10.70;99.90
2869;DHT22;1442;47.448;8.582;2024-03-23T07:06:19;10.80;99.90
2869;DHT22;1442;47.448;8.582;2024-03-23T07:08:46;10.80;99.90
2869;DHT22;1442;47.448;8.582;2024-03-23T07:11:17;10.80;99.90
2869;DHT22;1442;47.448;8.582;2024-03-23T07:13:45;10.80;99.90
2869;DHT22;1442;47.448;8.582;2024-03-23T07:16:13;10.80;99.90
2869;DHT22;1442;47.448;8.582;2024-03-23T07:18:39;10.80;99.90
2869;DHT22;1442;47.448;8.582;2024-03-23T07:21:05;10.80;99.90
2869;DHT22;1442;47.448;8.582;2024-03-23T07:23:33;10.80;99.90
2869;DHT22;1442;47.448;8.582;2024-03-23T07:25:59;10.70;99.90
2869;DHT22;1442;47.448;8.582;2024-03-23T07:28:26;10.70;99.90
2869;DHT22;1442;47.448;8.582;2024-03-23T07:31:05;10.70;99.90
2869;DHT22;1442;47.448;8.582;2024-03-23T07:33:36;10.70;99.90
2869;DHT22;1442;47.448;8.582;2024-03-23T07:36:02;10.70;99.90
2869;DHT22;1442;47.448;8.582;2024-03-23T07:38:29;10.70;99.90
2869;DHT22;1442;47.448;8.582;2024-03-23T07:41:03;10.70;99.90
2869;DHT22;1442;47.448;8.582;2024-03-23T07:43:30;10.80;99.90
2869;DHT22;1442;47.448;8.582;2024-03-23T07:45:55;10.70;99.90
2869;DHT22;1442;47.448;8.582;2024-03-23T07:48:22;10.70;99.90
2869;DHT22;1442;47.448;8.582;2024-03-23T07:50:58;10.80;99.90
2869;DHT22;1442;47.448;8.582;2024-03-23T07:53:24;10.70;99.90
2869;DHT22;1442;47.448;8.582;2024-03-23T07:55:54;10.70;99.90
2869;DHT22;1442;47.448;8.582;2024-03-23T07:58:21;10.60;99.90
2869;DHT22;1442;47.448;8.582;2024-03-23T08:00:46;10.40;99.90
2869;DHT22;1442;47.448;8.582;2024-03-23T08:03:13;10.20;99.90
2869;DHT22;1442;47.448;8.582;2024-03-23T08:05:39;10.00;99.90
2869;DHT22;1442;47.448;8.582;2024-03-23T08:08:07;9.90;99.90
2869;DHT22;1442;47.448;8.582;2024-03-23T08:10:33;9.90;99.90
2869;DHT22;1442;47.448;8.582;2024-03-23T08:13:00;9.80;99.90
2869;DHT22;1442;47.448;8.582;2024-03-23T08:15:25;9.70;99.90
2869;DHT22;1442;47.448;8.582;2024-03-23T08:17:52;9.70;99.90
2869;DHT22;1442;47.448;8.582;2024-03-23T08:20:18;9.70;99.90
2869;DHT22;1442;47.448;8.582;2024-03-23T08:22:45;9.70;99.90
2869;DHT22;1442;47.448;8.582;2024-03-23T08:25:12;9.70;99.90
2869;DHT22;1442;47.448;8.582;2024-03-23T08:27:38;9.70;99.90
2869;DHT22;1442;47.448;8.582;2024-03-23T08:30:05;9.70;99.90
2869;DHT22;1442;47.448;8.582;2024-03-23T08:32:32;9.50;99.90
2869;DHT22;1442;47.448;8.582;2024-03-23T08:34:58;9.50;99.90
2869;DHT22;1442;47.448;8.582;2024-03-23T08:37:25;9.40;99.90
2869;DHT22;1442;47.448;8.582;2024-03-23T08:39:51;9.40;99.90
2869;DHT22;1442;47.448;8.582;2024-03-23T08:42:19;9.40;99.90
2869;DHT22;1442;47.448;8.582;2024-03-23T08:44:47;9.40;99.90
2869;DHT22;1442;47.448;8.582;2024-03-23T08:47:15;9.30;99.90
2869;DHT22;1442;47.448;8.582;2024-03-23T08:49:40;9.30;99.90
2869;DHT22;1442;47.448;8.582;2024-03-23T08:52:07;9.30;99.90
2869;DHT22;1442;47.448;8.582;2024-03-23T08:54:33;9.30;99.90
2869;DHT22;1442;47.448;8.582;2024-03-23T08:57:00;9.30;99.90
2869;DHT22;1442;47.448;8.582;2024-03-23T08:59:27;9.30;99.90
2869;DHT22;1442;47.448;8.582;2024-03-23T09:01:54;9.30;99.90
2869;DHT22;1442;47.448;8.582;2024-03-23T09:04:19;9.40;99.90
2869;DHT22;1442;47.448;8.582;2024-03-23T09:06:47;9.40;99.90
2869;DHT22;1442;47.448;8.582;2024-03-23T09:09:12;9.40;99.90
2869;DHT22;1442;47.448;8.582;2024-03-23T09:11:39;9.40;99.90
2869;DHT22;1442;47.448;8.582;2024-03-23T09:14:05;9.30;99.90
2869;DHT22;1442;47.448;8.582;2024-03-23T09:16:33;9.30;99.90
2869;DHT22;1442;47.448;8.582;2024-03-23T09:18:59;9.30;99.90
2869;DHT22;1442;47.448;8.582;2024-03-23T09:21:25;9.30;99.90
2869;DHT22;1442;47.448;8.582;2024-03-23T09:23:51;9.30;99.90
2869;DHT22;1442;47.448;8.582;2024-03-23T09:26:18;9.30;99.90
2869;DHT22;1442;47.448;8.582;2024-03-23T09:28:44;9.20;99.90
2869;DHT22;1442;47.448;8.582;2024-03-23T09:31:10;9.30;99.90
2869;DHT22;1442;47.448;8.582;2024-03-23T09:33:41;9.30;99.90
2869;DHT22;1442;47.448;8.582;2024-03-23T09:36:08;9.30;99.90
2869;DHT22;1442;47.448;8.582;2024-03-23T09:38:34;9.20;99.90
2869;DHT22;1442;47.448;8.582;2024-03-23T09:41:07;9.10;99.90
2869;DHT22;1442;47.448;8.582;2024-03-23T09:43:32;9.10;99.90
2869;DHT22;1442;47.448;8.582;2024-03-23T09:45:59;9.10;99.90
2869;DHT22;1442;47.448;8.582;2024-03-23T09:48:27;9.10;99.90
2869;DHT22;1442;47.448;8.582;2024-03-23T09:50:55;9.10;99.90
2869;DHT22;1442;47.448;8.582;2024-03-23T09:53:21;9.10;99.90
2869;DHT22;1442;47.448;8.582;2024-03-23T09:55:48;9.10;99.90
2869;DHT22;1442;47.448;8.582;2024-03-23T09:58:15;9.10;99.90
2869;DHT22;1442;47.448;8.582;2024-03-23T10:00:43;9.10;99.90
2869;DHT22;1442;47.448;8.582;2024-03-23T10:03:08;9.10;99.90
2869;DHT22;1442;47.448;8.582;2024-03-23T10:05:37;9.10;99.90
2869;DHT22;1442;47.448;8.582;2024-03-23T10:08:17;9.10;99.90
2869;DHT22;1442;47.448;8.582;2024-03-23T10:10:45;9.10;99.90
2869;DHT22;1442;47.448;8.582;2024-03-23T10:13:11;9.10;99.90
2869;DHT22;1442;47.448;8.582;2024-03-23T10:15:55;9.20;99.90
2869;DHT22;1442;47.448;8.582;2024-03-23T10:18:21;9.30;99.90
2869;DHT22;1442;47.448;8.582;2024-03-23T10:20:51;9.40;99.90
2869;DHT22;1442;47.448;8.582;2024-03-23T10:23:18;9.30;99.90
2869;DHT22;1442;47.448;8.582;2024-03-23T10:25:45;9.30;99.90
2869;DHT22;1442;47.448;8.582;2024-03-23T10:28:11;9.30;99.90
2869;DHT22;1442;47.448;8.582;2024-03-23T10:30:38;9.40;99.90
2869;DHT22;1442;47.448;8.582;2024-03-23T10:33:08;9.40;99.90
2869;DHT22;1442;47.448;8.582;2024-03-23T10:35:35;9.40;99.90
2869;DHT22;1442;47.448;8.582;2024-03-23T10:38:04;9.40;99.90
2869;DHT22;1442;47.448;8.582;2024-03-23T10:40:34;9.40;99.90
2869;DHT22;1442;47.448;8.582;2024-03-23T10:43:00;9.50;99.90
2869;DHT22;1442;47.448;8.582;2024-03-23T10:45:27;9.60;99.90
2869;DHT22;1442;47.448;8.582;2024-03-23T10:47:53;9.50;99.90
2869;DHT22;1442;47.448;8.582;2024-03-23T10:50:19;9.50;99.90
2869;DHT22;1442;47.448;8.582;2024-03-23T10:52:47;9.50;99.90
2869;DHT22;1442;47.448;8.582;2024-03-23T10:55:16;9.50;99.90
2869;DHT22;1442;47.448;8.582;2024-03-23T10:57:48;9.60;99.90
2869;DHT22;1442;47.448;8.582;2024-03-23T11:00:17;9.70;99.90
2869;DHT22;1442;47.448;8.582;2024-03-23T11:02:43;9.70;99.90
2869;DHT22;1442;47.448;8.582;2024-03-23T11:05:29;9.70;99.90
2869;DHT22;1442;47.448;8.582;2024-03-23T11:07:56;9.80;99.90
2869;DHT22;1442;47.448;8.582;2024-03-23T11:10:25;9.90;99.90
2869;DHT22;1442;47.448;8.582;2024-03-23T11:12:53;9.90;99.90
2869;DHT22;1442;47.448;8.582;2024-03-23T11:15:19;10.00;99.90
2869;DHT22;1442;47.448;8.582;2024-03-23T11:18:04;10.10;99.90
2869;DHT22;1442;47.448;8.582;2024-03-23T11:20:33;10.30;99.90
2869;DHT22;1442;47.448;8.582;2024-03-23T11:23:01;10.30;99.90
2869;DHT22;1442;47.448;8.582;2024-03-23T11:25:28;10.30;99.90
2869;DHT22;1442;47.448;8.582;2024-03-23T11:27:57;10.30;99.90
2869;DHT22;1442;47.448;8.582;2024-03-23T11:30:24;10.30;99.90
2869;DHT22;1442;47.448;8.582;2024-03-23T11:32:53;10.40;99.90
2869;DHT22;1442;47.448;8.582;2024-03-23T11:35:29;10.30;99.90
2869;DHT22;1442;47.448;8.582;2024-03-23T11:38:07;10.40;99.90
2869;DHT22;1442;47.448;8.582;2024-03-23T11:40:33;10.40;99.90
2869;DHT22;1442;47.448;8.582;2024-03-23T11:43:02;10.30;99.90
2869;DHT22;1442;47.448;8.582;2024-03-23T11:45:29;10.30;99.90
2869;DHT22;1442;47.448;8.582;2024-03-23T11:48:07;10.30;99.90
2869;DHT22;1442;47.448;8.582;2024-03-23T11:50:35;10.30;99.90
2869;DHT22;1442;47.448;8.582;2024-03-23T11:53:11;10.30;99.90
2869;DHT22;1442;47.448;8.582;2024-03-23T11:55:45;10.30;99.90
2869;DHT22;1442;47.448;8.582;2024-03-23T11:58:14;10.30;99.90
2869;DHT22;1442;47.448;8.582;2024-03-23T12:00:41;10.40;99.90
2869;DHT22;1442;47.448;8.582;2024-03-23T12:03:08;10.40;99.90
2869;DHT22;1442;47.448;8.582;2024-03-23T12:05:36;10.50;99.90
2869;DHT22;1442;47.448;8.582;2024-03-23T12:08:16;10.50;99.90
2869;DHT22;1442;47.448;8.582;2024-03-23T12:10:44;10.50;99.90
2869;DHT22;1442;47.448;8.582;2024-03-23T12:13:11;10.50;99.90
2869;DHT22;1442;47.448;8.582;2024-03-23T12:15:38;10.50;99.90
2869;DHT22;1442;47.448;8.582;2024-03-23T12:18:08;10.30;99.90
2869;DHT22;1442;47.448;8.582;2024-03-23T12:20:34;10.00;99.90
2869;DHT22;1442;47.448;8.582;2024-03-23T12:23:09;9.60;99.90
2869;DHT22;1442;47.448;8.582;2024-03-23T12:25:37;9.40;99.90
2869;DHT22;1442;47.448;8.582;2024-03-23T12:28:04;9.20;99.90
2869;DHT22;1442;47.448;8.582;2024-03-23T12:30:32;9.10;99.90
2869;DHT22;1442;47.448;8.582;2024-03-23T12:33:00;9.10;99.90
2869;DHT22;1442;47.448;8.582;2024-03-23T12:35:26;9.00;99.90
2869;DHT22;1442;47.448;8.582;2024-03-23T12:37:53;9.00;99.90
2869;DHT22;1442;47.448;8.582;2024-03-23T12:40:18;9.00;99.90
2869;DHT22;1442;47.448;8.582;2024-03-23T12:42:45;9.00;99.90
2869;DHT22;1442;47.448;8.582;2024-03-23T12:45:11;9.10;99.90
2869;DHT22;1442;47.448;8.582;2024-03-23T12:47:37;9.00;99.90
2869;DHT22;1442;47.448;8.582;2024-03-23T12:50:05;9.00;99.90
2869;DHT22;1442;47.448;8.582;2024-03-23T12:52:32;9.10;99.90
2869;DHT22;1442;47.448;8.582;2024-03-23T12:54:58;9.20;99.90
2869;DHT22;1442;47.448;8.582;2024-03-23T12:57:25;9.40;99.90
2869;DHT22;1442;47.448;8.582;2024-03-23T12:59:52;9.60;99.90
2869;DHT22;1442;47.448;8.582;2024-03-23T13:02:19;9.70;99.90
2869;DHT22;1442;47.448;8.582;2024-03-23T13:04:46;9.80;99.90
2869;DHT22;1442;47.448;8.582;2024-03-23T13:07:15;9.90;99.90
2869;DHT22;1442;47.448;8.582;2024-03-23T13:09:40;9.90;99.90
2869;DHT22;1442;47.448;8.582;2024-03-23T13:12:08;10.00;99.90
2869;DHT22;1442;47.448;8.582;2024-03-23T13:14:33;9.90;99.90
2869;DHT22;1442;47.448;8.582;2024-03-23T13:17:00;9.80;99.90
2869;DHT22;1442;47.448;8.582;2024-03-23T13:19:27;9.70;99.90
2869;DHT22;1442;47.448;8.582;2024-03-23T13:21:56;9.80;99.90
2869;DHT22;1442;47.448;8.582;2024-03-23T13:24:24;9.90;99.90
2869;DHT22;1442;47.448;8.582;2024-03-23T13:26:51;10.00;99.90
2869;DHT22;1442;47.448;8.582;2024-03-23T13:29:17;10.00;99.90
2869;DHT22;1442;47.448;8.582;2024-03-23T13:31:44;10.20;99.90
2869;DHT22;1442;47.448;8.582;2024-03-23T13:34:10;10.20;99.90
2869;DHT22;1442;47.448;8.582;2024-03-23T13:36:37;10.30;99.90
2869;DHT22;1442;47.448;8.582;2024-03-23T13:39:03;10.50;99.90
2869;DHT22;1442;47.448;8.582;2024-03-23T13:41:38;10.60;99.90
2869;DHT22;1442;47.448;8.582;2024-03-23T13:44:04;10.60;99.90
2869;DHT22;1442;47.448;8.582;2024-03-23T13:46:31;10.70;99.90
2869;DHT22;1442;47.448;8.582;2024-03-23T13:48:56;10.70;99.90
2869;DHT22;1442;47.448;8.582;2024-03-23T13:51:23;10.50;99.90
2869;DHT22;1442;47.448;8.582;2024-03-23T13:53:50;10.30;99.90
2869;DHT22;1442;47.448;8.582;2024-03-23T13:56:17;10.10;99.90
2869;DHT22;1442;47.448;8.582;2024-03-23T13:58:45;10.00;99.90
2869;DHT22;1442;47.448;8.582;2024-03-23T14:01:13;10.10;99.90
2869;DHT22;1442;47.448;8.582;2024-03-23T14:03:39;10.10;99.90
2869;DHT22;1442;47.448;8.582;2024-03-23T14:06:06;10.20;99.90
2869;DHT22;1442;47.448;8.582;2024-03-23T14:08:33;10.30;99.90
2869;DHT22;1442;47.448;8.582;2024-03-23T14:11:02;10.40;99.90
2869;DHT22;1442;47.448;8.582;2024-03-23T14:13:29;10.40;99.90
2869;DHT22;1442;47.448;8.582;2024-03-23T14:15:57;10.40;99.90
2869;DHT22;1442;47.448;8.582;2024-03-23T14:18:23;10.40;99.90
2869;DHT22;1442;47.448;8.582;2024-03-23T14:20:51;10.50;99.90
2869;DHT22;1442;47.448;8.582;2024-03-23T14:23:18;10.50;99.90
2869;DHT22;1442;47.448;8.582;2024-03-23T14:25:45;10.60;99.90
2869;DHT22;1442;47.448;8.582;2024-03-23T14:28:11;10.60;99.90
2869;DHT22;1442;47.448;8.582;2024-03-23T14:30:41;10.60;99.90
2869;DHT22;1442;47.448;8.582;2024-03-23T14:33:08;10.70;99.90
2869;DHT22;1442;47.448;8.582;2024-03-23T14:35:35;10.70;99.90
2869;DHT22;1442;47.448;8.582;2024-03-23T14:38:01;10.60;99.90
2869;DHT22;1442;47.448;8.582;2024-03-23T14:40:28;10.60;99.90
2869;DHT22;1442;47.448;8.582;2024-03-23T14:42:54;10.70;99.90
2869;DHT22;1442;47.448;8.582;2024-03-23T14:45:21;10.60;99.90
2869;DHT22;1442;47.448;8.582;2024-03-23T14:47:47;10.70;99.90
2869;DHT22;1442;47.448;8.582;2024-03-23T14:50:15;10.60;99.90
2869;DHT22;1442;47.448;8.582;2024-03-23T14:52:42;10.60;99.90
2869;DHT22;1442;47.448;8.582;2024-03-23T14:55:10;10.50;99.90
2869;DHT22;1442;47.448;8.582;2024-03-23T14:57:36;10.50;99.90
2869;DHT22;1442;47.448;8.582;2024-03-23T15:00:06;10.50;99.90
2869;DHT22;1442;47.448;8.582;2024-03-23T15:02:32;10.60;99.90
2869;DHT22;1442;47.448;8.582;2024-03-23T15:04:59;10.70;99.90
2869;DHT22;1442;47.448;8.582;2024-03-23T15:07:26;10.70;99.90
2869;DHT22;1442;47.448;8.582;2024-03-23T15:09:53;10.60;99.90
2869;DHT22;1442;47.448;8.582;2024-03-23T15:12:19;10.70;99.90
2869;DHT22;1442;47.448;8.582;2024-03-23T15:14:47;10.70;99.90
2869;DHT22;1442;47.448;8.582;2024-03-23T15:17:13;10.70;99.90
2869;DHT22;1442;47.448;8.582;2024-03-23T15:19:39;10.70;99.90
2869;DHT22;1442;47.448;8.582;2024-03-23T15:22:07;10.70;99.90
2869;DHT22;1442;47.448;8.582;2024-03-23T15:24:35;10.70;99.90
2869;DHT22;1442;47.448;8.582;2024-03-23T15:27:01;10.80;99.90
2869;DHT22;1442;47.448;8.582;2024-03-23T15:29:29;10.70;99.90
2869;DHT22;1442;47.448;8.582;2024-03-23T15:31:54;10.70;99.90
2869;DHT22;1442;47.448;8.582;2024-03-23T15:34:22;10.70;99.90
2869;DHT22;1442;47.448;8.582;2024-03-23T15:36:48;10.70;99.90
2869;DHT22;1442;47.448;8.582;2024-03-23T15:39:16;10.70;99.90
2869;DHT22;1442;47.448;8.582;2024-03-23T15:41:44;10.70;99.90
2869;DHT22;1442;47.448;8.582;2024-03-23T15:44:10;10.60;99.90
2869;DHT22;1442;47.448;8.582;2024-03-23T15:46:36;10.60;99.90
2869;DHT22;1442;47.448;8.582;2024-03-23T15:49:03;10.70;99.60
2869;DHT22;1442;47.448;8.582;2024-03-23T15:51:29;10.60;99.30
2869;DHT22;1442;47.448;8.582;2024-03-23T15:54:00;10.60;98.90
2869;DHT22;1442;47.448;8.582;2024-03-23T15:56:25;10.50;99.80
2869;DHT22;1442;47.448;8.582;2024-03-23T15:58:54;10.50;99.90
2869;DHT22;1442;47.448;8.582;2024-03-23T16:01:19;10.50;99.40
2869;DHT22;1442;47.448;8.582;2024-03-23T16:03:47;10.60;99.30
2869;DHT22;1442;47.448;8.582;2024-03-23T16:06:13;10.60;99.70
2869;DHT22;1442;47.448;8.582;2024-03-23T16:08:40;10.60;99.50
2869;DHT22;1442;47.448;8.582;2024-03-23T16:11:06;10.60;99.60
2869;DHT22;1442;47.448;8.582;2024-03-23T16:13:34;10.70;98.60
2869;DHT22;1442;47.448;8.582;2024-03-23T16:16:03;10.60;97.80
2869;DHT22;1442;47.448;8.582;2024-03-23T16:18:32;10.60;97.20
2869;DHT22;1442;47.448;8.582;2024-03-23T16:20:59;10.60;97.40
2869;DHT22;1442;47.448;8.582;2024-03-23T16:23:26;10.50;97.70
2869;DHT22;1442;47.448;8.582;2024-03-23T16:25:53;10.60;98.10
2869;DHT22;1442;47.448;8.582;2024-03-23T16:28:24;10.50;97.90
2869;DHT22;1442;47.448;8.582;2024-03-23T16:30:57;10.50;98.20
2869;DHT22;1442;47.448;8.582;2024-03-23T16:33:26;10.40;98.00
2869;DHT22;1442;47.448;8.582;2024-03-23T16:35:59;10.50;97.90
2869;DHT22;1442;47.448;8.582;2024-03-23T16:38:27;10.40;97.60
2869;DHT22;1442;47.448;8.582;2024-03-23T16:40:57;10.30;98.10
2869;DHT22;1442;47.448;8.582;2024-03-23T16:43:24;10.30;98.40
2869;DHT22;1442;47.448;8.582;2024-03-23T16:45:54;10.30;98.70
2869;DHT22;1442;47.448;8.582;2024-03-23T16:48:22;10.30;99.60
2869;DHT22;1442;47.448;8.582;2024-03-23T16:50:49;10.30;99.90
2869;DHT22;1442;47.448;8.582;2024-03-23T16:53:16;10.20;99.90
2869;DHT22;1442;47.448;8.582;2024-03-23T16:55:42;10.10;99.90